createdAt,value
2022-08-07T00:00:02.983Z,9.40
2022-08-07T00:01:00.235Z,11.00
2022-08-07T00:02:36.787Z,10.20
2022-08-07T00:03:01.227Z,9.10
2022-08-07T00:04:00.228Z,6.30
2022-08-07T00:05:00.304Z,9.10
2022-08-07T00:06:00.203Z,8.30
2022-08-07T00:07:01.469Z,7.40
2022-08-07T00:08:02.040Z,6.80
2022-08-07T00:09:00.188Z,6.60
2022-08-07T00:10:25.400Z,7.60
2022-08-07T00:11:02.171Z,9.50
2022-08-07T00:12:00.166Z,7.10
2022-08-07T00:13:01.780Z,8.40
2022-08-07T00:14:00.170Z,11.40
2022-08-07T00:15:00.139Z,7.10
2022-08-07T00:16:00.142Z,7.80
2022-08-07T00:17:00.131Z,6.90
2022-08-07T00:18:00.131Z,8.80
2022-08-07T00:19:00.133Z,6.60
2022-08-07T00:20:03.253Z,9.00
2022-08-07T00:21:02.051Z,6.90
2022-08-07T00:22:02.130Z,5.50
2022-08-07T00:23:00.104Z,8.00
2022-08-07T00:24:00.099Z,6.60
2022-08-07T00:25:00.144Z,7.80
2022-08-07T00:26:06.824Z,8.60
2022-08-07T00:27:07.424Z,8.20
2022-08-07T00:28:01.071Z,8.50
2022-08-07T00:29:00.060Z,6.60
2022-08-07T00:30:00.070Z,11.60
2022-08-07T00:31:00.059Z,11.50
2022-08-07T00:32:01.042Z,6.60
2022-08-07T00:33:00.070Z,10.20
2022-08-07T00:34:00.026Z,7.80
2022-08-07T00:35:00.043Z,8.60
2022-08-07T00:36:00.029Z,9.40
2022-08-07T00:37:00.002Z,9.10
2022-08-07T00:38:00.016Z,7.50
2022-08-07T00:39:00.069Z,9.30
2022-08-07T00:40:00.028Z,9.00
2022-08-07T00:40:59.994Z,8.00
2022-08-07T00:42:01.334Z,6.40
2022-08-07T00:42:59.971Z,10.20
2022-08-07T00:44:02.806Z,6.60
2022-08-07T00:45:00.958Z,8.70
2022-08-07T00:45:59.994Z,11.80
2022-08-07T00:46:59.934Z,11.30
2022-08-07T00:48:18.259Z,7.80
2022-08-07T00:49:02.056Z,9.10
2022-08-07T00:50:19.536Z,10.50
2022-08-07T00:51:01.073Z,8.20
2022-08-07T00:51:59.930Z,11.20
2022-08-07T00:52:59.930Z,7.20
2022-08-07T00:53:59.906Z,10.30
2022-08-07T00:54:59.915Z,8.30
2022-08-07T00:56:03.678Z,8.30
2022-08-07T00:57:00.890Z,6.80
2022-08-07T00:57:59.901Z,8.20
2022-08-07T00:58:59.903Z,7.50
2022-08-07T00:59:59.872Z,7.00
2022-08-07T01:00:59.894Z,8.10
2022-08-07T01:01:59.898Z,9.40
2022-08-07T01:02:59.847Z,7.80
2022-08-07T01:04:00.187Z,10.00
2022-08-07T01:04:59.842Z,7.30
2022-08-07T01:05:59.846Z,5.60
2022-08-07T01:06:59.827Z,12.00
2022-08-07T01:07:59.827Z,8.00
2022-08-07T01:09:00.932Z,8.70
2022-08-07T01:10:05.839Z,7.30
2022-08-07T01:11:00.813Z,9.90
2022-08-07T01:12:27.708Z,10.50
2022-08-07T01:13:00.786Z,7.40
2022-08-07T01:13:59.778Z,7.60
2022-08-07T01:15:01.698Z,7.40
2022-08-07T01:16:05.759Z,7.90
2022-08-07T01:17:00.773Z,11.90
2022-08-07T01:17:59.750Z,6.70
2022-08-07T01:18:59.760Z,10.00
2022-08-07T01:19:59.748Z,7.80
2022-08-07T01:20:59.921Z,6.70
2022-08-07T01:21:59.724Z,6.60
2022-08-07T01:23:09.103Z,7.50
2022-08-07T01:24:00.728Z,6.60
2022-08-07T01:24:59.714Z,7.70
2022-08-07T01:25:59.706Z,7.00
2022-08-07T01:26:59.714Z,7.10
2022-08-07T01:27:59.700Z,7.70
2022-08-07T01:28:59.695Z,8.10
2022-08-07T01:29:59.676Z,7.70
2022-08-07T01:30:59.681Z,7.70
2022-08-07T01:31:59.846Z,7.30
2022-08-07T01:32:59.659Z,7.50
2022-08-07T01:33:59.654Z,6.90
2022-08-07T01:34:59.657Z,7.70
2022-08-07T01:36:06.396Z,8.10
2022-08-07T01:37:00.654Z,7.40
2022-08-07T01:37:59.629Z,8.00
2022-08-07T01:38:59.653Z,9.10
2022-08-07T01:39:59.644Z,6.10
2022-08-07T01:40:59.617Z,6.80
2022-08-07T01:42:32.433Z,7.60
2022-08-07T01:43:00.600Z,7.70
2022-08-07T01:43:59.596Z,8.30
2022-08-07T01:44:59.590Z,8.60
2022-08-07T01:45:59.572Z,6.40
2022-08-07T01:47:01.264Z,5.30
2022-08-07T01:48:20.923Z,8.40
2022-08-07T01:49:00.560Z,7.00
2022-08-07T01:49:59.561Z,8.00
2022-08-07T01:50:59.549Z,7.10
2022-08-07T01:52:02.364Z,5.80
2022-08-07T01:52:59.536Z,7.10
2022-08-07T01:54:12.373Z,6.20
2022-08-07T01:55:00.520Z,7.00
2022-08-07T01:55:59.517Z,9.50
2022-08-07T01:56:59.529Z,6.80
2022-08-07T01:58:01.536Z,7.20
2022-08-07T01:59:00.498Z,5.50
2022-08-07T01:59:59.484Z,6.90
2022-08-07T02:01:09.975Z,5.90
2022-08-07T02:02:04.242Z,9.70
2022-08-07T02:03:21.060Z,9.50
2022-08-07T02:04:00.535Z,8.30
2022-08-07T02:04:59.455Z,6.60
2022-08-07T02:06:00.946Z,9.40
2022-08-07T02:06:59.446Z,8.00
2022-08-07T02:07:59.463Z,11.30
2022-08-07T02:08:59.427Z,7.80
2022-08-07T02:09:59.405Z,8.10
2022-08-07T02:11:00.413Z,8.00
2022-08-07T02:12:04.213Z,8.60
2022-08-07T02:13:00.417Z,5.10
2022-08-07T02:14:00.823Z,6.00
2022-08-07T02:14:59.390Z,7.00
2022-08-07T02:15:59.377Z,8.00
2022-08-07T02:16:59.382Z,8.70
2022-08-07T02:17:59.903Z,7.40
2022-08-07T02:18:59.370Z,8.60
2022-08-07T02:20:06.719Z,10.40
2022-08-07T02:21:00.356Z,9.90
2022-08-07T02:22:00.338Z,7.00
2022-08-07T02:22:59.709Z,7.40
2022-08-07T02:23:59.343Z,9.00
2022-08-07T02:24:59.327Z,8.20
2022-08-07T02:26:31.765Z,8.00
2022-08-07T02:27:01.408Z,9.80
2022-08-07T02:27:59.307Z,8.30
2022-08-07T02:29:00.073Z,7.50
2022-08-07T02:29:59.302Z,8.50
2022-08-07T02:30:59.290Z,8.30
2022-08-07T02:31:59.286Z,7.20
2022-08-07T02:33:03.939Z,7.30
2022-08-07T02:34:04.142Z,7.50
2022-08-07T02:35:00.864Z,7.10
2022-08-07T02:36:30.777Z,7.30
2022-08-07T02:37:00.246Z,6.30
2022-08-07T02:37:59.227Z,8.10
2022-08-07T02:38:59.312Z,7.90
2022-08-07T02:40:02.159Z,8.60
2022-08-07T02:41:00.274Z,7.80
2022-08-07T02:41:59.212Z,9.70
2022-08-07T02:42:59.211Z,7.20
2022-08-07T02:43:59.198Z,7.40
2022-08-07T02:44:59.197Z,8.20
2022-08-07T02:46:01.985Z,9.80
2022-08-07T02:47:00.965Z,9.10
2022-08-07T02:47:59.220Z,7.90
2022-08-07T02:48:59.165Z,7.50
2022-08-07T02:50:00.042Z,7.70
2022-08-07T02:51:00.186Z,9.20
2022-08-07T02:51:59.152Z,6.40
2022-08-07T02:53:03.438Z,9.00
2022-08-07T02:53:59.137Z,9.40
2022-08-07T02:54:59.132Z,7.00
2022-08-07T02:56:04.137Z,6.80
2022-08-07T02:57:00.164Z,10.10
2022-08-07T02:57:59.707Z,8.00
2022-08-07T02:58:59.102Z,7.90
2022-08-07T03:00:01.212Z,8.80
2022-08-07T03:00:59.134Z,8.00
2022-08-07T03:02:02.058Z,8.60
2022-08-07T03:02:59.133Z,6.90
2022-08-07T03:03:59.064Z,12.00
2022-08-07T03:05:00.078Z,8.30
2022-08-07T03:06:00.066Z,7.20
2022-08-07T03:06:59.045Z,6.30
2022-08-07T03:08:07.780Z,8.90
2022-08-07T03:09:00.036Z,6.30
2022-08-07T03:09:59.016Z,7.10
2022-08-07T03:10:59.020Z,10.20
2022-08-07T03:12:02.569Z,6.70
2022-08-07T03:12:59.002Z,6.80
2022-08-07T03:14:01.834Z,9.50
2022-08-07T03:14:58.980Z,7.80
2022-08-07T03:15:58.985Z,9.40
2022-08-07T03:16:58.975Z,8.10
2022-08-07T03:17:58.974Z,9.50
2022-08-07T03:18:58.989Z,8.90
2022-08-07T03:19:58.957Z,7.20
2022-08-07T03:20:58.941Z,7.80
2022-08-07T03:21:58.938Z,9.60
2022-08-07T03:22:58.936Z,9.00
2022-08-07T03:24:20.657Z,9.70
2022-08-07T03:24:59.927Z,6.80
2022-08-07T03:25:59.890Z,8.00
2022-08-07T03:26:59.648Z,9.20
2022-08-07T03:28:09.631Z,7.80
2022-08-07T03:29:00.929Z,7.90
2022-08-07T03:29:58.909Z,10.10
2022-08-07T03:30:58.873Z,7.30
2022-08-07T03:31:58.869Z,10.70
2022-08-07T03:32:59.322Z,12.00
2022-08-07T03:33:58.865Z,7.90
2022-08-07T03:35:16.997Z,9.20
2022-08-07T03:35:59.844Z,9.30
2022-08-07T03:36:58.836Z,8.70
2022-08-07T03:37:58.828Z,7.20
2022-08-07T03:38:58.838Z,8.00
2022-08-07T03:40:15.151Z,9.10
2022-08-07T03:40:59.846Z,8.70
2022-08-07T03:41:58.805Z,8.50
2022-08-07T03:42:58.790Z,7.50
2022-08-07T03:43:58.785Z,10.00
2022-08-07T03:44:58.796Z,8.20
2022-08-07T03:45:58.777Z,7.70
2022-08-07T03:47:12.960Z,9.50
2022-08-07T03:47:59.770Z,7.50
2022-08-07T03:49:02.608Z,9.10
2022-08-07T03:49:58.764Z,8.00
2022-08-07T03:50:58.744Z,8.80
2022-08-07T03:52:01.954Z,9.90
2022-08-07T03:52:58.725Z,8.10
2022-08-07T03:54:05.870Z,8.70
2022-08-07T03:55:06.857Z,6.60
2022-08-07T03:56:04.409Z,7.90
2022-08-07T03:57:03.429Z,6.70
2022-08-07T03:58:34.484Z,7.00
2022-08-07T03:59:08.746Z,9.00
2022-08-07T04:00:02.616Z,8.50
2022-08-07T04:00:59.689Z,7.50
2022-08-07T04:01:59.743Z,6.40
2022-08-07T04:02:58.660Z,7.20
2022-08-07T04:03:58.653Z,6.30
2022-08-07T04:04:58.645Z,8.90
2022-08-07T04:05:59.912Z,5.80
2022-08-07T04:07:00.080Z,8.50
2022-08-07T04:07:58.621Z,9.10
2022-08-07T04:08:58.614Z,9.00
2022-08-07T04:09:58.604Z,8.30
2022-08-07T04:12:25.795Z,7.00
2022-08-07T04:12:27.405Z,10.70
2022-08-07T04:12:59.585Z,6.50
2022-08-07T04:14:14.042Z,6.70
2022-08-07T04:15:00.138Z,7.00
2022-08-07T04:15:58.586Z,7.90
2022-08-07T04:16:59.069Z,8.80
2022-08-07T04:18:31.410Z,9.10
2022-08-07T04:19:04.050Z,9.90
2022-08-07T04:20:01.308Z,8.80
2022-08-07T04:20:58.541Z,8.10
2022-08-07T04:22:04.892Z,7.00
2022-08-07T04:23:01.938Z,8.10
2022-08-07T04:24:07.591Z,11.40
2022-08-07T04:25:01.663Z,10.30
2022-08-07T04:25:58.497Z,6.50
2022-08-07T04:26:58.503Z,10.60
2022-08-07T04:27:59.368Z,10.30
2022-08-07T04:28:58.659Z,8.10
2022-08-07T04:30:02.772Z,7.40
2022-08-07T04:30:59.468Z,8.50
2022-08-07T04:32:09.697Z,7.70
2022-08-07T04:32:59.452Z,7.20
2022-08-07T04:33:58.449Z,7.70
2022-08-07T04:34:58.436Z,6.20
2022-08-07T04:35:58.427Z,10.20
2022-08-07T04:36:58.420Z,10.60
2022-08-07T04:38:04.601Z,6.60
2022-08-07T04:38:59.414Z,8.60
2022-08-07T04:39:58.437Z,6.90
2022-08-07T04:40:58.397Z,7.20
2022-08-07T04:41:58.393Z,10.30
2022-08-07T04:43:02.102Z,10.20
2022-08-07T04:44:11.784Z,6.30
2022-08-07T04:45:07.804Z,7.20
2022-08-07T04:46:01.710Z,9.10
2022-08-07T04:47:04.290Z,7.10
2022-08-07T04:48:03.710Z,8.20
2022-08-07T04:48:59.373Z,9.80
2022-08-07T04:50:04.450Z,7.60
2022-08-07T04:50:59.330Z,6.00
2022-08-07T04:51:58.320Z,7.50
2022-08-07T04:52:58.845Z,7.70
2022-08-07T04:54:05.381Z,7.90
2022-08-07T04:54:59.304Z,9.80
2022-08-07T04:58:10.820Z,9.40
2022-08-07T04:58:13.162Z,10.10
2022-08-07T04:58:14.031Z,7.60
2022-08-07T05:00:09.455Z,8.70
2022-08-07T05:00:59.283Z,9.60
2022-08-07T05:01:59.257Z,7.60
2022-08-07T05:02:58.244Z,9.10
2022-08-07T05:04:07.353Z,8.20
2022-08-07T05:04:59.236Z,9.20
2022-08-07T05:05:58.231Z,8.20
2022-08-07T05:06:58.215Z,12.00
2022-08-07T05:07:58.213Z,10.80
2022-08-07T05:09:01.049Z,7.70
2022-08-07T05:09:58.196Z,7.60
2022-08-07T05:10:58.582Z,8.50
2022-08-07T05:12:02.383Z,7.00
2022-08-07T05:14:44.742Z,10.30
2022-08-07T05:14:52.257Z,9.80
2022-08-07T05:15:03.532Z,7.80
2022-08-07T05:15:59.148Z,9.70
2022-08-07T05:16:59.157Z,8.70
2022-08-07T05:17:58.356Z,7.80
2022-08-07T05:18:58.267Z,8.00
2022-08-07T05:19:58.132Z,8.40
2022-08-07T05:20:58.128Z,8.70
2022-08-07T05:21:59.850Z,8.00
2022-08-07T05:22:58.118Z,8.60
2022-08-07T05:23:58.150Z,7.50
2022-08-07T05:24:59.639Z,8.80
2022-08-07T05:26:11.737Z,8.90
2022-08-07T05:26:59.088Z,8.10
2022-08-07T05:28:02.835Z,10.20
2022-08-07T05:28:59.104Z,8.60
2022-08-07T05:29:59.064Z,8.70
2022-08-07T05:30:58.059Z,8.50
2022-08-07T05:31:58.048Z,8.20
2022-08-07T05:32:58.048Z,7.90
2022-08-07T05:34:01.336Z,8.20
2022-08-07T05:34:59.035Z,8.50
2022-08-07T05:35:58.026Z,10.20
2022-08-07T05:36:58.231Z,7.90
2022-08-07T05:38:08.846Z,9.60
2022-08-07T05:39:08.754Z,7.10
2022-08-07T05:40:13.526Z,6.60
2022-08-07T05:40:59.066Z,8.00
2022-08-07T05:42:01.062Z,8.50
2022-08-07T05:42:58.986Z,8.10
2022-08-07T05:44:11.789Z,9.00
2022-08-07T05:45:14.278Z,10.80
2022-08-07T05:45:58.957Z,10.00
2022-08-07T05:46:57.952Z,8.30
2022-08-07T05:48:01.489Z,9.20
2022-08-07T05:48:58.972Z,10.70
2022-08-07T05:49:57.935Z,7.70
2022-08-07T05:50:57.931Z,8.90
2022-08-07T05:51:57.913Z,7.80
2022-08-07T05:52:57.927Z,9.30
2022-08-07T05:54:13.263Z,7.80
2022-08-07T05:55:05.443Z,6.20
2022-08-07T05:56:02.866Z,8.00
2022-08-07T05:56:58.979Z,11.50
2022-08-07T05:57:57.895Z,10.50
2022-08-07T05:58:57.887Z,8.80
2022-08-07T05:59:58.348Z,9.00
2022-08-07T06:00:57.868Z,9.70
2022-08-07T06:01:59.379Z,7.10
2022-08-07T06:02:57.865Z,7.80
2022-08-07T06:04:01.016Z,10.10
2022-08-07T06:04:57.865Z,7.10
2022-08-07T06:05:57.834Z,8.90
2022-08-07T06:07:03.941Z,9.20
2022-08-07T06:08:14.294Z,7.40
2022-08-07T06:08:58.806Z,7.90
2022-08-07T06:10:05.381Z,7.20
2022-08-07T06:10:58.790Z,10.40
2022-08-07T06:11:57.782Z,8.10
2022-08-07T06:12:57.781Z,7.60
2022-08-07T06:14:11.822Z,8.20
2022-08-07T06:15:05.222Z,9.10
2022-08-07T06:15:58.767Z,6.60
2022-08-07T06:16:57.763Z,8.10
2022-08-07T06:17:57.754Z,6.20
2022-08-07T06:18:57.751Z,10.70
2022-08-07T06:20:04.533Z,7.30
2022-08-07T06:22:14.842Z,6.60
2022-08-07T06:22:15.415Z,5.60
2022-08-07T06:23:09.461Z,5.80
2022-08-07T06:24:53.033Z,8.40
2022-08-07T06:25:01.072Z,5.70
2022-08-07T06:25:57.702Z,7.60
2022-08-07T06:26:57.705Z,7.30
2022-08-07T06:28:01.756Z,11.60
2022-08-07T06:28:59.035Z,7.40
2022-08-07T06:29:57.673Z,5.90
2022-08-07T06:30:58.163Z,6.70
2022-08-07T06:31:57.662Z,9.00
2022-08-07T06:32:57.653Z,4.90
2022-08-07T06:33:57.657Z,7.40
2022-08-07T06:34:57.643Z,8.20
2022-08-07T06:36:13.326Z,7.90
2022-08-07T06:36:58.618Z,6.00
2022-08-07T06:37:57.613Z,7.70
2022-08-07T06:40:13.398Z,7.80
2022-08-07T06:40:13.630Z,7.10
2022-08-07T06:40:58.632Z,13.40
2022-08-07T06:42:00.907Z,6.10
2022-08-07T06:42:58.581Z,8.30
2022-08-07T06:44:01.334Z,8.80
2022-08-07T06:44:58.586Z,9.00
2022-08-07T06:46:01.027Z,7.10
2022-08-07T06:47:10.057Z,6.60
2022-08-07T06:47:59.611Z,6.80
2022-08-07T06:48:57.534Z,6.70
2022-08-07T06:49:58.486Z,4.80
2022-08-07T06:50:57.530Z,10.20
2022-08-07T06:52:02.899Z,7.10
2022-08-07T06:52:59.509Z,5.90
2022-08-07T06:55:33.423Z,6.20
2022-08-07T06:55:34.390Z,10.30
2022-08-07T06:56:01.591Z,8.10
2022-08-07T06:56:57.482Z,8.80
2022-08-07T06:57:57.618Z,5.70
2022-08-07T07:00:11.971Z,8.30
2022-08-07T07:00:13.971Z,6.40
2022-08-07T07:00:59.481Z,7.00
2022-08-07T07:01:57.530Z,7.90
2022-08-07T07:03:00.652Z,6.20
2022-08-07T07:04:16.408Z,8.10
2022-08-07T07:04:58.442Z,8.80
2022-08-07T07:06:02.959Z,6.20
2022-08-07T07:07:01.275Z,7.00
2022-08-07T07:07:59.840Z,7.80
2022-08-07T07:08:58.405Z,6.20
2022-08-07T07:09:57.393Z,8.40
2022-08-07T07:10:58.887Z,8.00
2022-08-07T07:12:07.673Z,10.90
2022-08-07T07:12:58.378Z,5.10
2022-08-07T07:14:01.207Z,6.80
2022-08-07T07:14:58.365Z,9.20
2022-08-07T07:15:57.361Z,10.60
2022-08-07T07:16:57.366Z,6.90
2022-08-07T07:17:58.134Z,6.80
2022-08-07T07:18:57.343Z,5.70
2022-08-07T07:19:59.169Z,8.50
2022-08-07T07:20:58.319Z,9.50
2022-08-07T07:22:11.776Z,7.50
2022-08-07T07:24:09.622Z,7.50
2022-08-07T07:24:10.987Z,8.40
2022-08-07T07:25:14.173Z,6.70
2022-08-07T07:26:34.549Z,6.70
2022-08-07T07:26:58.315Z,6.50
2022-08-07T07:28:02.563Z,6.10
2022-08-07T07:29:39.147Z,6.90
2022-08-07T07:30:10.024Z,6.90
2022-08-07T07:30:59.256Z,4.60
2022-08-07T07:31:57.255Z,5.80
2022-08-07T07:32:57.268Z,4.40
2022-08-07T07:33:57.435Z,5.90
2022-08-07T07:34:57.236Z,3.10
2022-08-07T07:36:05.301Z,8.40
2022-08-07T07:36:58.222Z,4.70
2022-08-07T07:38:02.500Z,10.60
2022-08-07T07:38:59.263Z,5.60
2022-08-07T07:39:57.244Z,7.70
2022-08-07T07:41:01.721Z,3.50
2022-08-07T07:42:13.350Z,4.20
2022-08-07T07:42:58.255Z,5.00
2022-08-07T07:44:17.904Z,6.30
2022-08-07T07:44:58.167Z,7.20
2022-08-07T07:46:38.103Z,6.50
2022-08-07T07:47:11.861Z,5.80
2022-08-07T07:47:59.150Z,7.00
2022-08-07T07:49:00.223Z,5.30
2022-08-07T07:50:35.902Z,5.40
2022-08-07T07:50:58.118Z,3.90
2022-08-07T07:51:58.468Z,5.00
2022-08-07T07:52:57.122Z,7.60
2022-08-07T07:53:57.107Z,5.60
2022-08-07T07:54:57.118Z,4.70
2022-08-07T07:56:00.412Z,4.60
2022-08-07T07:56:57.390Z,5.90
2022-08-07T07:57:58.171Z,5.70
2022-08-07T07:58:57.078Z,4.30
2022-08-07T07:59:57.078Z,5.10
2022-08-07T08:00:57.079Z,5.00
2022-08-07T08:02:03.564Z,4.50
2022-08-07T08:03:05.898Z,6.30
2022-08-07T08:04:09.593Z,6.20
2022-08-07T08:04:58.033Z,3.40
2022-08-07T08:05:57.049Z,5.80
2022-08-07T08:06:57.029Z,5.00
2022-08-07T08:08:01.423Z,5.50
2022-08-07T08:08:57.017Z,5.40
2022-08-07T08:10:05.031Z,7.20
2022-08-07T08:10:58.026Z,4.00
2022-08-07T08:12:02.715Z,4.10
2022-08-07T08:13:00.049Z,4.10
2022-08-07T08:13:56.996Z,6.30
2022-08-07T08:14:56.986Z,4.20
2022-08-07T08:15:58.746Z,7.90
2022-08-07T08:16:56.978Z,4.50
2022-08-07T08:17:58.827Z,4.20
2022-08-07T08:18:58.962Z,4.20
2022-08-07T08:20:18.027Z,4.40
2022-08-07T08:20:57.946Z,3.90
2022-08-07T08:22:03.016Z,4.50
2022-08-07T08:22:57.930Z,3.00
2022-08-07T08:23:56.930Z,6.00
2022-08-07T08:25:04.399Z,6.50
2022-08-07T08:26:03.355Z,3.50
2022-08-07T08:26:57.922Z,5.80
2022-08-07T08:28:01.833Z,5.10
2022-08-07T08:28:57.881Z,4.50
2022-08-07T08:29:57.821Z,7.70
2022-08-07T08:30:56.873Z,4.70
2022-08-07T08:32:04.809Z,3.40
2022-08-07T08:32:57.865Z,3.90
2022-08-07T08:33:57.976Z,5.60
2022-08-07T08:34:56.878Z,8.00
2022-08-07T08:35:56.850Z,3.60
2022-08-07T08:36:57.966Z,4.00
2022-08-07T08:38:00.486Z,3.00
2022-08-07T08:38:57.843Z,5.30
2022-08-07T08:39:58.363Z,7.90
2022-08-07T08:40:56.994Z,5.20
2022-08-07T08:41:58.981Z,7.30
2022-08-07T08:42:56.805Z,5.80
2022-08-07T08:43:59.337Z,3.80
2022-08-07T08:44:56.794Z,5.20
2022-08-07T08:45:59.607Z,3.60
2022-08-07T08:46:56.777Z,7.00
2022-08-07T08:47:56.784Z,4.50
2022-08-07T08:48:56.788Z,3.50
2022-08-07T08:50:04.746Z,5.30
2022-08-07T08:50:57.760Z,3.10
2022-08-07T08:52:13.892Z,7.60
2022-08-07T08:52:57.736Z,5.80
2022-08-07T08:53:56.746Z,3.10
2022-08-07T08:54:56.736Z,4.00
2022-08-07T08:55:58.498Z,5.40
2022-08-07T08:56:56.741Z,4.70
2022-08-07T08:57:56.717Z,2.70
2022-08-07T08:58:56.719Z,4.20
2022-08-07T08:59:57.323Z,6.30
2022-08-07T09:00:57.191Z,4.50
2022-08-07T09:01:59.550Z,7.00
2022-08-07T09:02:57.736Z,5.10
2022-08-07T09:03:56.902Z,4.30
2022-08-07T09:04:56.685Z,4.40
2022-08-07T09:05:56.672Z,3.50
2022-08-07T09:06:56.675Z,4.70
2022-08-07T09:07:58.244Z,3.40
2022-08-07T09:08:56.661Z,4.10
2022-08-07T09:09:57.397Z,2.30
2022-08-07T09:10:56.649Z,3.20
2022-08-07T09:12:02.746Z,3.50
2022-08-07T09:12:58.648Z,5.50
2022-08-07T09:13:56.636Z,4.90
2022-08-07T09:14:58.819Z,7.60
2022-08-07T09:16:22.202Z,5.90
2022-08-07T09:16:57.612Z,5.10
2022-08-07T09:17:59.698Z,4.00
2022-08-07T09:18:58.404Z,4.20
2022-08-07T09:19:56.634Z,5.60
2022-08-07T09:20:58.435Z,2.50
2022-08-07T09:22:10.058Z,5.50
2022-08-07T09:24:30.645Z,5.90
2022-08-07T09:24:32.613Z,4.80
2022-08-07T09:25:00.507Z,5.90
2022-08-07T09:25:58.330Z,5.20
2022-08-07T09:26:58.339Z,6.70
2022-08-07T09:28:00.121Z,4.70
2022-08-07T09:30:05.999Z,3.90
2022-08-07T09:30:06.238Z,6.60
2022-08-07T09:30:57.548Z,3.40
2022-08-07T09:31:56.528Z,3.90
2022-08-07T09:32:56.530Z,3.20
2022-08-07T09:33:57.725Z,3.90
2022-08-07T09:34:56.545Z,3.40
2022-08-07T09:36:04.017Z,4.50
2022-08-07T09:36:57.513Z,4.50
2022-08-07T09:37:56.505Z,4.00
2022-08-07T09:38:56.518Z,3.70
2022-08-07T09:39:57.878Z,4.30
2022-08-07T09:40:56.519Z,3.50
2022-08-07T09:41:59.125Z,4.50
2022-08-07T09:42:57.483Z,4.60
2022-08-07T09:44:06.470Z,3.50
2022-08-07T09:47:50.342Z,7.20
2022-08-07T09:47:52.543Z,2.70
2022-08-07T09:47:55.115Z,4.80
2022-08-07T09:48:01.564Z,5.40
2022-08-07T09:50:00.935Z,3.90
2022-08-07T09:50:01.046Z,3.00
2022-08-07T09:50:57.496Z,3.40
2022-08-07T09:52:10.777Z,2.80
2022-08-07T09:52:57.428Z,4.60
2022-08-07T09:54:00.580Z,7.50
2022-08-07T09:54:58.425Z,3.50
2022-08-07T09:56:03.841Z,4.30
2022-08-07T09:56:57.403Z,4.10
2022-08-07T09:57:56.409Z,4.10
2022-08-07T09:58:56.407Z,3.90
2022-08-07T10:00:00.667Z,3.60
2022-08-07T10:00:56.403Z,6.90
2022-08-07T10:01:56.395Z,3.20
2022-08-07T10:02:56.576Z,4.50
2022-08-07T10:04:05.847Z,4.40
2022-08-07T10:04:57.506Z,7.10
2022-08-07T10:05:59.996Z,4.10
2022-08-07T10:06:57.578Z,4.90
2022-08-07T10:07:56.976Z,4.30
2022-08-07T10:08:56.351Z,4.20
2022-08-07T10:10:00.310Z,3.80
2022-08-07T10:11:59.771Z,4.40
2022-08-07T10:12:01.395Z,4.20
2022-08-07T10:12:56.357Z,4.90
2022-08-07T10:14:01.857Z,5.00
2022-08-07T10:14:57.326Z,5.70
2022-08-07T10:15:56.327Z,6.20
2022-08-07T10:16:56.303Z,3.60
2022-08-07T10:18:01.087Z,4.00
2022-08-07T10:18:57.294Z,6.10
2022-08-07T10:19:56.292Z,5.60
2022-08-07T10:20:56.315Z,4.80
2022-08-07T10:22:15.952Z,4.40
2022-08-07T10:22:57.291Z,3.40
2022-08-07T10:24:05.192Z,3.60
2022-08-07T10:24:57.552Z,5.10
2022-08-07T10:25:56.292Z,4.40
2022-08-07T10:26:56.268Z,2.70
2022-08-07T10:27:56.253Z,3.90
2022-08-07T10:28:56.239Z,3.40
2022-08-07T10:29:56.232Z,3.10
2022-08-07T10:30:56.275Z,3.90
2022-08-07T10:31:56.243Z,4.10
2022-08-07T10:32:59.626Z,5.20
2022-08-07T10:34:05.572Z,3.40
2022-08-07T10:34:57.215Z,2.70
2022-08-07T10:35:59.467Z,3.10
2022-08-07T10:36:58.215Z,7.20
2022-08-07T10:38:09.818Z,2.30
2022-08-07T10:38:57.194Z,5.50
2022-08-07T10:40:03.322Z,6.90
2022-08-07T10:40:56.189Z,4.40
2022-08-07T10:42:09.278Z,3.00
2022-08-07T10:42:57.172Z,2.20
2022-08-07T10:44:02.542Z,3.10
2022-08-07T10:44:57.150Z,3.20
2022-08-07T10:45:58.694Z,2.90
2022-08-07T10:46:56.151Z,5.00
2022-08-07T10:47:59.882Z,4.30
2022-08-07T10:48:57.150Z,3.90
2022-08-07T10:49:56.150Z,3.40
2022-08-07T10:50:56.136Z,3.10
2022-08-07T10:52:01.623Z,2.40
2022-08-07T10:52:57.161Z,4.00
2022-08-07T10:54:00.003Z,2.40
2022-08-07T10:55:07.905Z,3.60
2022-08-07T10:55:57.093Z,3.70
2022-08-07T10:56:56.098Z,3.50
2022-08-07T10:57:56.538Z,4.60
2022-08-07T10:58:59.413Z,3.40
2022-08-07T10:59:56.097Z,3.00
2022-08-07T11:00:56.650Z,3.90
2022-08-07T11:02:05.064Z,2.40
2022-08-07T11:02:57.120Z,2.50
2022-08-07T11:04:11.246Z,6.00
2022-08-07T11:04:58.110Z,4.30
2022-08-07T11:05:56.062Z,3.00
2022-08-07T11:06:56.050Z,3.90
2022-08-07T11:07:59.535Z,4.10
2022-08-07T11:08:57.042Z,2.30
2022-08-07T11:10:09.259Z,3.00
2022-08-07T11:10:59.958Z,3.50
2022-08-07T11:11:59.207Z,4.50
2022-08-07T11:13:01.924Z,1.90
2022-08-07T11:14:44.973Z,4.70
2022-08-07T11:15:00.562Z,3.90
2022-08-07T11:15:56.003Z,3.30
2022-08-07T11:17:01.340Z,6.40
2022-08-07T11:18:03.596Z,3.10
2022-08-07T11:18:56.978Z,4.10
2022-08-07T11:19:55.978Z,2.90
2022-08-07T11:20:55.981Z,3.80
2022-08-07T11:21:56.011Z,4.50
2022-08-07T11:22:55.963Z,5.10
2022-08-07T11:23:55.960Z,5.40
2022-08-07T11:24:55.949Z,3.20
2022-08-07T11:25:55.965Z,3.70
2022-08-07T11:26:56.935Z,3.60
2022-08-07T11:28:03.269Z,6.50
2022-08-07T11:28:56.921Z,8.00
2022-08-07T11:30:17.732Z,7.20
2022-08-07T11:30:56.949Z,3.20
2022-08-07T11:31:55.905Z,6.20
2022-08-07T11:32:55.909Z,2.90
2022-08-07T11:33:59.910Z,3.90
2022-08-07T11:34:55.897Z,5.80
2022-08-07T11:35:59.527Z,4.20
2022-08-07T11:36:56.394Z,2.60
2022-08-07T11:37:58.217Z,2.90
2022-08-07T11:38:56.897Z,5.70
2022-08-07T11:40:01.282Z,2.10
2022-08-07T11:40:56.877Z,3.40
2022-08-07T11:42:02.362Z,5.90
2022-08-07T11:42:56.857Z,5.10
2022-08-07T11:44:12.162Z,3.80
2022-08-07T11:44:57.895Z,5.30
2022-08-07T11:45:55.841Z,4.40
2022-08-07T11:46:55.825Z,3.60
2022-08-07T11:47:59.385Z,2.30
2022-08-07T11:49:28.600Z,5.00
2022-08-07T11:50:30.247Z,4.50
2022-08-07T11:50:57.773Z,4.50
2022-08-07T11:51:55.801Z,2.40
2022-08-07T11:52:55.813Z,4.10
2022-08-07T11:54:00.986Z,2.60
2022-08-07T11:54:56.800Z,5.50
2022-08-07T11:56:09.450Z,4.20
2022-08-07T11:56:56.817Z,2.50
2022-08-07T11:58:00.373Z,3.50
2022-08-07T11:58:56.741Z,2.90
2022-08-07T12:00:12.603Z,3.50
2022-08-07T12:01:02.315Z,3.30
2022-08-07T12:01:59.818Z,2.90
2022-08-07T12:02:55.778Z,4.10
2022-08-07T12:03:55.802Z,6.40
2022-08-07T12:04:55.724Z,8.40
2022-08-07T12:05:58.377Z,4.90
2022-08-07T12:07:01.090Z,4.00
2022-08-07T12:08:04.132Z,2.90
2022-08-07T12:08:57.028Z,4.20
2022-08-07T12:09:55.784Z,3.50
2022-08-07T12:11:08.135Z,3.40
2022-08-07T12:12:10.576Z,4.20
2022-08-07T12:12:56.684Z,3.90
2022-08-07T12:13:55.685Z,3.30
2022-08-07T12:15:00.473Z,3.10
2022-08-07T12:16:06.867Z,3.80
2022-08-07T12:16:56.662Z,2.20
2022-08-07T12:17:58.822Z,2.30
2022-08-07T12:18:56.634Z,5.10
2022-08-07T12:20:03.336Z,3.00
2022-08-07T12:20:56.621Z,3.20
2022-08-07T12:22:47.254Z,4.90
2022-08-07T12:22:58.937Z,5.10
2022-08-07T12:24:07.758Z,3.20
2022-08-07T12:25:01.959Z,2.90
2022-08-07T12:26:03.448Z,5.60
2022-08-07T12:26:56.603Z,3.90
2022-08-07T12:28:08.979Z,5.20
2022-08-07T12:28:56.577Z,8.30
2022-08-07T12:29:55.591Z,8.50
2022-08-07T12:30:55.572Z,7.10
2022-08-07T12:32:03.967Z,6.00
2022-08-07T12:32:56.552Z,5.50
2022-08-07T12:34:01.210Z,5.10
2022-08-07T12:34:55.973Z,8.40
2022-08-07T12:35:58.185Z,2.00
2022-08-07T12:36:55.521Z,4.20
2022-08-07T12:38:09.177Z,5.30
2022-08-07T12:38:57.606Z,3.80
2022-08-07T12:39:55.605Z,3.40
2022-08-07T12:40:55.554Z,4.80
2022-08-07T12:41:55.501Z,4.30
2022-08-07T12:42:57.205Z,4.30
2022-08-07T12:44:04.086Z,5.40
2022-08-07T12:44:56.853Z,9.20
2022-08-07T12:45:55.483Z,4.40
2022-08-07T12:46:55.463Z,3.00
2022-08-07T12:47:55.446Z,10.90
2022-08-07T12:48:55.471Z,5.70
2022-08-07T12:50:04.489Z,5.30
2022-08-07T12:50:56.433Z,2.60
2022-08-07T12:52:12.274Z,4.30
2022-08-07T12:52:56.426Z,5.60
2022-08-07T12:54:02.739Z,2.50
2022-08-07T12:55:00.173Z,3.30
2022-08-07T12:56:03.615Z,4.00
2022-08-07T12:56:56.668Z,4.30
2022-08-07T12:58:01.812Z,3.80
2022-08-07T12:58:58.013Z,9.20
2022-08-07T12:59:56.014Z,4.70
2022-08-07T13:00:56.767Z,3.90
2022-08-07T13:01:55.439Z,3.60
2022-08-07T13:02:55.410Z,8.30
2022-08-07T13:04:02.990Z,4.30
2022-08-07T13:05:01.440Z,7.20
2022-08-07T13:06:01.780Z,5.60
2022-08-07T13:07:01.771Z,5.40
2022-08-07T13:08:12.136Z,7.40
2022-08-07T13:08:56.323Z,6.10
2022-08-07T13:10:18.679Z,4.50
2022-08-07T13:10:56.310Z,4.00
2022-08-07T13:12:02.229Z,5.20
2022-08-07T13:12:56.298Z,3.20
2022-08-07T13:13:55.302Z,4.50
2022-08-07T13:14:55.428Z,4.50
2022-08-07T13:15:58.973Z,2.90
2022-08-07T13:16:56.275Z,3.80